createdAt,value
2017-08-23T00:01:24.744Z,101852.61
2017-08-23T00:03:52.548Z,101853.45
2017-08-23T00:06:20.412Z,101843.01
2017-08-23T00:08:48.243Z,101847.60
2017-08-23T00:11:16.093Z,101849.97
2017-08-23T00:13:43.894Z,101847.91
2017-08-23T00:16:11.707Z,101852.34
2017-08-23T00:18:39.552Z,101850.40
2017-08-23T00:21:07.329Z,101849.73
2017-08-23T00:23:35.180Z,101846.24
2017-08-23T00:26:02.953Z,101847.75
2017-08-23T00:28:30.856Z,101849.56
2017-08-23T00:30:58.705Z,101857.90
2017-08-23T00:33:26.566Z,101853.89
2017-08-23T00:35:54.353Z,101846.11
2017-08-23T00:38:22.164Z,101848.89
2017-08-23T00:40:49.982Z,101852.92
2017-08-23T00:43:17.830Z,101848.89
2017-08-23T00:45:45.623Z,101845.69
2017-08-23T00:48:13.513Z,101846.66
2017-08-23T00:50:41.307Z,101847.92
2017-08-23T00:53:09.102Z,101858.48
2017-08-23T00:55:36.890Z,101853.61
2017-08-23T00:58:04.724Z,101854.73
2017-08-23T01:00:32.599Z,101850.80
2017-08-23T01:03:00.411Z,101848.44
2017-08-23T01:05:28.193Z,101850.58
2017-08-23T01:07:56.013Z,101852.93
2017-08-23T01:10:23.868Z,101843.89
2017-08-23T01:12:51.654Z,101840.44
2017-08-23T01:15:19.495Z,101847.80
2017-08-23T01:17:47.279Z,101837.24
2017-08-23T01:20:15.131Z,101843.34
2017-08-23T01:22:42.903Z,101842.77
2017-08-23T01:25:10.705Z,101847.05
2017-08-23T01:27:38.517Z,101842.50
2017-08-23T01:30:06.310Z,101840.69
2017-08-23T01:32:34.197Z,101843.04
2017-08-23T01:35:02.002Z,101847.62
2017-08-23T01:37:29.840Z,101846.48
2017-08-23T01:39:57.617Z,101839.16
2017-08-23T01:42:25.457Z,101844.72
2017-08-23T01:44:53.235Z,101841.10
2017-08-23T01:47:21.092Z,101840.81
2017-08-23T01:49:48.862Z,101841.65
2017-08-23T01:52:16.692Z,101834.16
2017-08-23T01:54:44.414Z,101838.33
2017-08-23T01:57:12.232Z,101840.80
2017-08-23T01:59:40.041Z,101838.31
2017-08-23T02:02:07.893Z,101830.95
2017-08-23T02:04:35.700Z,101834.27
2017-08-23T02:07:03.487Z,101832.75
2017-08-23T02:09:31.310Z,101837.75
2017-08-23T02:11:59.118Z,101837.75
2017-08-23T02:14:26.972Z,101834.27
2017-08-23T02:16:54.748Z,101836.36
2017-08-23T02:19:22.556Z,101840.23
2017-08-23T02:21:50.332Z,101838.84
2017-08-23T02:24:18.203Z,101832.75
2017-08-23T02:26:46.014Z,101839.97
2017-08-23T02:29:13.852Z,101835.94
2017-08-23T02:31:41.664Z,101838.71
2017-08-23T02:34:09.513Z,101838.56
2017-08-23T02:36:37.293Z,101838.11
2017-08-23T02:39:05.212Z,101832.28
2017-08-23T02:41:33.041Z,101836.03
2017-08-23T02:44:00.883Z,101837.02
2017-08-23T02:46:28.649Z,101834.53
2017-08-23T02:48:56.437Z,101828.14
2017-08-23T02:51:24.259Z,101831.73
2017-08-23T02:53:51.965Z,101831.59
2017-08-23T02:56:19.802Z,101835.02
2017-08-23T02:58:47.585Z,101835.19
2017-08-23T03:01:15.405Z,101828.27
2017-08-23T03:03:43.195Z,101828.28
2017-08-23T03:06:11.015Z,101824.91
2017-08-23T03:08:38.823Z,101831.27
2017-08-23T03:11:06.691Z,101829.87
2017-08-23T03:13:34.468Z,101831.95
2017-08-23T03:16:02.309Z,101825.98
2017-08-23T03:18:30.105Z,101819.59
2017-08-23T03:20:57.946Z,101823.21
2017-08-23T03:23:25.744Z,101827.92
2017-08-23T03:25:53.599Z,101822.55
2017-08-23T03:28:21.386Z,101821.73
2017-08-23T03:30:49.236Z,101832.12
2017-08-23T03:33:17.086Z,101826.02
2017-08-23T03:35:44.894Z,101826.95
2017-08-23T03:38:12.722Z,101829.44
2017-08-23T03:40:40.511Z,101826.77
2017-08-23T03:43:08.351Z,101826.61
2017-08-23T03:45:36.130Z,101826.16
2017-08-23T03:48:03.931Z,101830.06
2017-08-23T03:50:31.732Z,101823.16
2017-08-23T03:52:59.593Z,101828.72
2017-08-23T03:55:27.398Z,101833.16
2017-08-23T03:57:55.216Z,101831.48
2017-08-23T04:00:23.006Z,101829.25
2017-08-23T04:02:50.826Z,101833.42
2017-08-23T04:05:18.625Z,101835.78
2017-08-23T04:07:46.327Z,101835.19
2017-08-23T04:10:14.170Z,101834.41
2017-08-23T04:12:41.964Z,101838.95
2017-08-23T04:15:09.851Z,101843.70
2017-08-23T04:17:37.663Z,101841.05
2017-08-23T04:20:05.496Z,101842.72
2017-08-23T04:22:33.336Z,101837.56
2017-08-23T04:25:01.173Z,101842.98
2017-08-23T04:27:28.996Z,101843.53
2017-08-23T04:29:56.832Z,101843.70
2017-08-23T04:32:24.544Z,101838.16
2017-08-23T04:34:52.393Z,101847.03
2017-08-23T04:37:20.179Z,101849.95
2017-08-23T04:39:47.996Z,101845.52
2017-08-23T04:42:15.790Z,101848.59
2017-08-23T04:44:43.512Z,101846.66
2017-08-23T04:47:11.270Z,101854.82
2017-08-23T04:49:38.964Z,101849.97
2017-08-23T04:52:06.696Z,101844.14
2017-08-23T04:54:34.397Z,101842.23
2017-08-23T04:57:02.173Z,101841.00
2017-08-23T04:59:29.890Z,101849.23
2017-08-23T05:01:57.625Z,101839.27
2017-08-23T05:04:25.363Z,101847.08
2017-08-23T05:06:53.157Z,101841.83
2017-08-23T05:09:20.893Z,101846.12
2017-08-23T05:11:48.649Z,101853.19
2017-08-23T05:14:16.377Z,101848.34
2017-08-23T05:16:44.129Z,101847.50
2017-08-23T05:19:11.880Z,101845.02
2017-08-23T05:21:39.628Z,101851.25
2017-08-23T05:24:07.321Z,101847.92
2017-08-23T05:26:35.115Z,101847.92
2017-08-23T05:29:02.822Z,101845.98
2017-08-23T05:31:30.544Z,101843.20
2017-08-23T05:33:58.309Z,101850.27
2017-08-23T05:36:26.012Z,101848.43
2017-08-23T05:38:53.771Z,101842.66
2017-08-23T05:41:21.493Z,101850.63
2017-08-23T05:43:49.247Z,101844.44
2017-08-23T05:46:16.960Z,101847.66
2017-08-23T05:48:44.706Z,101849.19
2017-08-23T05:51:12.416Z,101847.23
2017-08-23T05:53:40.193Z,101843.95
2017-08-23T05:56:07.897Z,101844.24
2017-08-23T05:58:35.615Z,101846.27
2017-08-23T06:01:03.436Z,101848.56
2017-08-23T06:03:31.171Z,101853.17
2017-08-23T06:05:58.964Z,101860.05
2017-08-23T06:08:26.672Z,101858.80
2017-08-23T06:10:54.429Z,101857.95
2017-08-23T06:13:22.137Z,101850.11
2017-08-23T06:15:49.911Z,101853.53
2017-08-23T06:18:17.645Z,101853.87
2017-08-23T06:20:45.439Z,101851.11
2017-08-23T06:23:13.188Z,101855.34
2017-08-23T06:25:40.976Z,101856.30
2017-08-23T06:28:08.696Z,101855.02
2017-08-23T06:30:36.387Z,101858.53
2017-08-23T06:33:04.123Z,101849.72
2017-08-23T06:35:31.840Z,101844.71
2017-08-23T06:37:59.602Z,101849.12
2017-08-23T06:40:27.355Z,101848.14
2017-08-23T06:42:55.136Z,101845.52
2017-08-23T06:45:22.857Z,101847.52
2017-08-23T06:47:50.647Z,101853.47
2017-08-23T06:50:18.434Z,101842.27
2017-08-23T06:52:46.333Z,101842.05
2017-08-23T06:55:14.159Z,101840.08
2017-08-23T06:57:41.978Z,101838.06
2017-08-23T07:00:09.757Z,101834.19
2017-08-23T07:02:37.622Z,101834.29
2017-08-23T07:05:05.392Z,101831.31
2017-08-23T07:07:33.267Z,101835.64
2017-08-23T07:10:01.060Z,101838.91
2017-08-23T07:12:28.854Z,101833.23
2017-08-23T07:14:56.600Z,101838.13
2017-08-23T07:17:24.602Z,101835.40
2017-08-23T07:19:52.337Z,101837.03
2017-08-23T07:22:20.193Z,101830.59
2017-08-23T07:24:47.975Z,101827.30
2017-08-23T07:27:15.724Z,101826.19
2017-08-23T07:29:43.592Z,101821.06
2017-08-23T07:32:11.456Z,101825.15
2017-08-23T07:34:39.254Z,101817.72
2017-08-23T07:37:07.005Z,101827.98
2017-08-23T07:39:34.775Z,101823.53
2017-08-23T07:42:05.131Z,101826.70
2017-08-23T07:44:32.915Z,101826.98
2017-08-23T07:47:00.698Z,101825.48
2017-08-23T07:49:28.504Z,101825.09
2017-08-23T07:51:56.281Z,101823.92
2017-08-23T07:54:24.028Z,101826.17
2017-08-23T07:56:51.895Z,101827.77
2017-08-23T07:59:19.629Z,101826.81
2017-08-23T08:01:47.410Z,101822.16
2017-08-23T08:04:15.229Z,101820.02
2017-08-23T08:06:43.156Z,101822.53
2017-08-23T08:09:10.947Z,101820.34
2017-08-23T08:11:38.825Z,101826.57
2017-08-23T08:14:06.623Z,101821.77
2017-08-23T08:16:34.523Z,101821.09
2017-08-23T08:19:02.374Z,101824.80
2017-08-23T08:21:30.238Z,101822.40
2017-08-23T08:23:58.059Z,101825.14
2017-08-23T08:26:25.803Z,101821.69
2017-08-23T08:28:53.612Z,101829.03
2017-08-23T08:31:21.341Z,101835.62
2017-08-23T08:33:49.120Z,101826.27
2017-08-23T08:36:16.904Z,101834.69
2017-08-23T08:38:44.684Z,101830.00
2017-08-23T08:41:12.431Z,101830.73
2017-08-23T08:43:40.309Z,101825.08
2017-08-23T08:46:08.013Z,101822.00
2017-08-23T08:48:35.877Z,101818.39
2017-08-23T08:51:03.597Z,101822.33
2017-08-23T08:53:31.529Z,101815.36
2017-08-23T08:55:59.286Z,101824.53
2017-08-23T08:58:27.096Z,101819.08
2017-08-23T09:00:54.911Z,101817.25
2017-08-23T09:03:22.686Z,101817.54
2017-08-23T09:05:50.421Z,101809.56
2017-08-23T09:08:18.181Z,101810.20
2017-08-23T09:10:46.040Z,101811.84
2017-08-23T09:13:13.869Z,101811.38
2017-08-23T09:15:41.704Z,101813.02
2017-08-23T09:18:09.534Z,101810.80
2017-08-23T09:20:37.273Z,101803.73
2017-08-23T09:23:05.082Z,101805.12
2017-08-23T09:25:32.999Z,101807.66
2017-08-23T09:28:00.825Z,101808.97
2017-08-23T09:30:28.696Z,101808.82
2017-08-23T09:32:56.536Z,101812.22
2017-08-23T09:35:24.388Z,101818.75
2017-08-23T09:37:52.123Z,101815.37
2017-08-23T09:40:19.973Z,101807.59
2017-08-23T09:42:47.768Z,101806.76
2017-08-23T09:45:15.573Z,101804.27
2017-08-23T09:47:43.427Z,101804.34
2017-08-23T09:50:11.228Z,101793.69
2017-08-23T09:52:39.073Z,101789.66
2017-08-23T09:55:06.874Z,101784.05
2017-08-23T09:57:34.754Z,101786.37
2017-08-23T10:00:02.565Z,101788.60
2017-08-23T10:02:30.392Z,101783.33
2017-08-23T10:04:59.145Z,101776.35
2017-08-23T10:07:26.993Z,101781.12
2017-08-23T10:09:54.811Z,101781.32
2017-08-23T10:12:22.711Z,101783.13
2017-08-23T10:14:50.484Z,101788.76
2017-08-23T10:17:18.323Z,101783.01
2017-08-23T10:19:46.119Z,101788.38
2017-08-23T10:22:13.995Z,101778.83
2017-08-23T10:24:41.805Z,101775.62
2017-08-23T10:27:09.660Z,101778.89
2017-08-23T10:29:37.473Z,101778.59
2017-08-23T10:32:05.342Z,101774.73
2017-08-23T10:34:33.228Z,101776.96
2017-08-23T10:37:01.035Z,101783.17
2017-08-23T10:39:28.893Z,101784.50
2017-08-23T10:41:56.735Z,101781.10
2017-08-23T10:44:24.594Z,101776.34
2017-08-23T10:46:52.413Z,101776.98
2017-08-23T10:49:20.262Z,101764.98
2017-08-23T10:51:48.102Z,101758.06
2017-08-23T10:54:15.982Z,101763.84
2017-08-23T10:56:43.800Z,101758.16
2017-08-23T10:59:11.680Z,101760.25
2017-08-23T11:01:39.504Z,101763.13
2017-08-23T11:04:07.348Z,101768.48
2017-08-23T11:06:35.196Z,101767.32
2017-08-23T11:09:03.127Z,101760.55
2017-08-23T11:11:30.943Z,101756.22
2017-08-23T11:13:59.715Z,101755.91
2017-08-23T11:16:27.570Z,101753.25
2017-08-23T11:18:55.432Z,101751.80
2017-08-23T11:21:23.297Z,101755.66
2017-08-23T11:23:51.169Z,101756.23
2017-08-23T11:26:19.012Z,101751.59
2017-08-23T11:28:46.783Z,101750.23
2017-08-23T11:31:15.768Z,101745.80
2017-08-23T11:33:43.653Z,101745.63
2017-08-23T11:36:11.502Z,101738.43
2017-08-23T11:38:39.319Z,101736.70
2017-08-23T11:41:07.215Z,101728.88
2017-08-23T11:43:35.095Z,101732.44
2017-08-23T11:46:02.934Z,101722.06
2017-08-23T11:48:30.772Z,101718.27
2017-08-23T11:50:58.648Z,101717.09
2017-08-23T11:53:26.403Z,101719.39
2017-08-23T11:55:54.224Z,101711.78
2017-08-23T11:58:22.120Z,101719.98
2017-08-23T12:00:49.868Z,101723.33
2017-08-23T12:03:17.748Z,101718.73
2017-08-23T12:05:45.548Z,101719.59
2017-08-23T12:08:13.382Z,101718.28
2017-08-23T12:10:41.189Z,101712.13
2017-08-23T12:13:09.095Z,101708.36
2017-08-23T12:15:36.908Z,101705.77
2017-08-23T12:18:04.804Z,101712.50
2017-08-23T12:20:32.649Z,101707.83
2017-08-23T12:23:00.431Z,101706.47
2017-08-23T12:25:28.154Z,101702.67
2017-08-23T12:27:56.091Z,101697.35
2017-08-23T12:30:23.836Z,101698.11
2017-08-23T12:32:51.685Z,101692.99
2017-08-23T12:35:19.443Z,101692.09
2017-08-23T12:37:47.206Z,101689.77
2017-08-23T12:40:15.051Z,101685.82
2017-08-23T12:42:42.813Z,101681.55
2017-08-23T12:45:10.766Z,101672.09
2017-08-23T12:47:38.570Z,101669.77
2017-08-23T12:50:06.443Z,101672.77
2017-08-23T12:52:34.179Z,101670.16
2017-08-23T12:55:02.096Z,101670.62
2017-08-23T12:57:29.831Z,101661.20
2017-08-23T12:59:57.649Z,101667.52
2017-08-23T13:02:25.386Z,101667.98
2017-08-23T13:04:53.182Z,101656.63
2017-08-23T13:07:20.907Z,101660.89
2017-08-23T13:09:48.732Z,101657.69
2017-08-23T13:12:16.495Z,101652.30
2017-08-23T13:14:44.217Z,101658.17
2017-08-23T13:17:12.076Z,101659.33
2017-08-23T13:19:39.871Z,101656.09
2017-08-23T13:22:07.707Z,101656.47
2017-08-23T13:24:35.478Z,101658.27
2017-08-23T13:27:03.357Z,101660.67
2017-08-23T13:29:31.116Z,101661.72
2017-08-23T13:31:59.053Z,101660.92
2017-08-23T13:34:26.885Z,101655.52
2017-08-23T13:36:54.774Z,101655.84
2017-08-23T13:39:22.571Z,101652.39
2017-08-23T13:41:50.455Z,101652.73
2017-08-23T13:44:18.287Z,101649.05
2017-08-23T13:46:46.058Z,101653.11
2017-08-23T13:49:13.891Z,101647.31
2017-08-23T13:51:41.755Z,101646.13
2017-08-23T13:54:09.633Z,101648.84
2017-08-23T13:56:37.452Z,101652.04
2017-08-23T13:59:05.322Z,101657.83
2017-08-23T14:01:33.163Z,101654.68
2017-08-23T14:04:01.017Z,101652.78
2017-08-23T14:06:28.872Z,101651.69
2017-08-23T14:08:56.712Z,101646.59
2017-08-23T14:11:24.534Z,101644.84
2017-08-23T14:13:52.398Z,101643.28
2017-08-23T14:16:20.194Z,101645.41
2017-08-23T14:18:48.044Z,101645.41
2017-08-23T14:21:15.827Z,101633.32
2017-08-23T14:23:43.668Z,101643.16
2017-08-23T14:26:11.470Z,101636.35
2017-08-23T14:28:39.303Z,101638.55
2017-08-23T14:31:07.152Z,101636.64
2017-08-23T14:33:34.887Z,101630.44
2017-08-23T14:36:02.776Z,101626.30
2017-08-23T14:38:30.611Z,101623.47
2017-08-23T14:40:58.397Z,101616.89
2017-08-23T14:43:26.117Z,101618.46
2017-08-23T14:45:53.934Z,101614.56
2017-08-23T14:48:21.638Z,101609.81
2017-08-23T14:50:49.420Z,101606.59
2017-08-23T14:53:17.159Z,101614.88
2017-08-23T14:55:46.744Z,101607.86
2017-08-23T14:58:14.522Z,101600.05
2017-08-23T15:00:42.267Z,101597.32
2017-08-23T15:03:10.069Z,101589.34
2017-08-23T15:05:37.941Z,101588.19
2017-08-23T15:08:05.748Z,101585.77
2017-08-23T15:10:33.539Z,101587.18
2017-08-23T15:13:01.340Z,101583.52
2017-08-23T15:15:29.162Z,101590.75
2017-08-23T15:17:57.034Z,101589.82
2017-08-23T15:20:24.874Z,101588.70
2017-08-23T15:23:00.662Z,101578.48
2017-08-23T15:25:28.490Z,101580.69
2017-08-23T15:27:56.345Z,101579.10
2017-08-23T15:30:24.161Z,101574.88
2017-08-23T15:32:52.043Z,101574.29
2017-08-23T15:35:19.901Z,101573.95
2017-08-23T15:37:47.803Z,101572.48
2017-08-23T15:40:15.658Z,101568.42
2017-08-23T15:42:43.555Z,101560.84
2017-08-23T15:45:11.402Z,101562.20
2017-08-23T15:47:39.296Z,101558.39
2017-08-23T15:50:07.121Z,101560.50
2017-08-23T15:52:35.020Z,101556.23
2017-08-23T15:55:02.845Z,101552.76
2017-08-23T15:57:30.728Z,101558.30
2017-08-23T15:59:58.550Z,101551.89
2017-08-23T16:02:26.368Z,101554.73
2017-08-23T16:04:54.260Z,101558.69
2017-08-23T16:07:22.133Z,101564.47
2017-08-23T16:09:50.060Z,101560.09
2017-08-23T16:12:17.897Z,101562.61
2017-08-23T16:14:45.733Z,101557.73
2017-08-23T16:17:13.536Z,101561.33
2017-08-23T16:19:41.380Z,101559.98
2017-08-23T16:22:09.201Z,101561.55
2017-08-23T16:24:37.072Z,101559.54
2017-08-23T16:27:05.412Z,101556.88
2017-08-23T16:29:33.264Z,101546.65
2017-08-23T16:32:01.025Z,101543.45
2017-08-23T16:34:35.474Z,101551.30
2017-08-23T16:37:03.286Z,101555.30
2017-08-23T16:39:31.191Z,101558.36
2017-08-23T16:41:59.090Z,101557.20
2017-08-23T16:44:26.939Z,101552.73
2017-08-23T16:46:54.847Z,101551.77
2017-08-23T16:49:22.649Z,101551.90
2017-08-23T16:51:50.558Z,101539.36
2017-08-23T16:54:18.300Z,101541.44
2017-08-23T16:56:46.130Z,101533.21
2017-08-23T16:59:13.952Z,101540.91
2017-08-23T17:01:41.845Z,101543.56
2017-08-23T17:04:09.670Z,101535.64
2017-08-23T17:06:37.456Z,101538.70
2017-08-23T17:09:05.322Z,101540.22
2017-08-23T17:11:33.243Z,101546.66
2017-08-23T17:14:01.073Z,101545.23
2017-08-23T17:16:28.946Z,101547.03
2017-08-23T17:18:56.842Z,101540.77
2017-08-23T17:21:24.684Z,101549.00
2017-08-23T17:23:52.593Z,101550.11
2017-08-23T17:26:20.458Z,101548.61
2017-08-23T17:28:48.333Z,101545.83
2017-08-23T17:31:16.052Z,101551.70
2017-08-23T17:33:43.920Z,101551.36
2017-08-23T17:36:11.765Z,101553.80
2017-08-23T17:38:39.713Z,101554.86
2017-08-23T17:41:07.559Z,101553.59
2017-08-23T17:43:35.478Z,101562.70
2017-08-23T17:46:03.341Z,101569.28
2017-08-23T17:48:31.153Z,101568.16
2017-08-23T17:50:59.007Z,101569.08
2017-08-23T17:53:26.798Z,101572.22
2017-08-23T17:55:55.255Z,101574.75
2017-08-23T17:58:25.223Z,101578.17
2017-08-23T18:00:53.269Z,101573.83
2017-08-23T18:03:21.423Z,101576.95
2017-08-23T18:05:49.217Z,101574.59
2017-08-23T18:08:16.967Z,101568.59
2017-08-23T18:10:44.788Z,101573.67
2017-08-23T18:13:12.689Z,101577.56
2017-08-23T18:15:40.492Z,101579.72
2017-08-23T18:18:08.352Z,101581.92
2017-08-23T18:20:36.175Z,101588.78
2017-08-23T18:23:03.929Z,101591.64
2017-08-23T18:25:31.739Z,101591.27
2017-08-23T18:27:59.550Z,101586.29
2017-08-23T18:30:27.318Z,101583.58
2017-08-23T18:32:55.075Z,101585.04
2017-08-23T18:35:22.991Z,101583.98
2017-08-23T18:37:50.771Z,101584.32
2017-08-23T18:40:19.813Z,101578.68
2017-08-23T18:42:47.930Z,101576.72
2017-08-23T18:45:15.667Z,101572.34
2017-08-23T18:47:43.417Z,101576.61
2017-08-23T18:50:11.223Z,101564.74
2017-08-23T18:52:39.027Z,101568.93
2017-08-23T18:55:06.801Z,101575.95
2017-08-23T18:57:34.665Z,101566.85
2017-08-23T19:00:02.424Z,101566.17
2017-08-23T19:02:30.200Z,101574.17
2017-08-23T19:04:57.944Z,101573.34
2017-08-23T19:07:25.721Z,101566.89
2017-08-23T19:09:53.483Z,101564.80
2017-08-23T19:12:21.429Z,101560.38
2017-08-23T19:14:49.182Z,101564.56
2017-08-23T19:17:16.974Z,101562.39
2017-08-23T19:19:44.747Z,101558.41
2017-08-23T19:22:12.528Z,101556.32
2017-08-23T19:24:40.342Z,101557.14
2017-08-23T19:27:08.140Z,101552.45
2017-08-23T19:29:35.935Z,101561.48
2017-08-23T19:32:03.783Z,101555.33
2017-08-23T19:34:31.598Z,101549.87
2017-08-23T19:36:59.444Z,101552.14
2017-08-23T19:39:27.244Z,101548.71
2017-08-23T19:41:55.096Z,101557.09
2017-08-23T19:44:22.909Z,101551.56
2017-08-23T19:46:50.645Z,101550.94
2017-08-23T19:49:18.509Z,101548.82
2017-08-23T19:51:46.327Z,101547.81
2017-08-23T19:54:14.233Z,101547.86
2017-08-23T19:56:42.033Z,101550.84
2017-08-23T19:59:09.902Z,101554.48
2017-08-23T20:01:37.713Z,101553.21
2017-08-23T20:04:05.526Z,101556.37
2017-08-23T20:06:33.385Z,101558.78
2017-08-23T20:09:01.239Z,101555.03
2017-08-23T20:11:29.125Z,101560.53
2017-08-23T20:13:56.971Z,101561.75
2017-08-23T20:16:24.827Z,101556.92
2017-08-23T20:18:52.574Z,101560.45
2017-08-23T20:21:20.483Z,101559.95
2017-08-23T20:23:48.315Z,101565.55
2017-08-23T20:26:16.204Z,101569.32
2017-08-23T20:28:43.965Z,101569.25
2017-08-23T20:31:11.911Z,101573.66
2017-08-23T20:33:39.663Z,101568.91
2017-08-23T20:36:07.565Z,101567.33
2017-08-23T20:38:35.358Z,101560.61
2017-08-23T20:41:03.255Z,101563.41
2017-08-23T20:43:30.976Z,101568.59
2017-08-23T20:45:58.868Z,101567.87
2017-08-23T20:48:26.748Z,101563.08
2017-08-23T20:50:54.633Z,101572.38
2017-08-23T20:53:22.440Z,101567.03
2017-08-23T20:55:50.232Z,101574.39
2017-08-23T20:58:18.106Z,101567.97
2017-08-23T21:00:46.009Z,101562.49
2017-08-23T21:03:13.876Z,101562.13
2017-08-23T21:05:41.693Z,101554.03
2017-08-23T21:08:09.510Z,101558.10
2017-08-23T21:10:37.345Z,101560.09
2017-08-23T21:13:05.122Z,101562.88
2017-08-23T21:15:32.943Z,101560.60
2017-08-23T21:18:00.807Z,101560.66
2017-08-23T21:20:28.661Z,101560.94
2017-08-23T21:22:56.538Z,101556.00
2017-08-23T21:25:24.317Z,101556.61
2017-08-23T21:27:52.159Z,101558.77
2017-08-23T21:30:19.993Z,101551.05
2017-08-23T21:32:47.888Z,101566.07
2017-08-23T21:35:15.779Z,101564.96
2017-08-23T21:37:43.578Z,101558.08
2017-08-23T21:40:11.442Z,101564.69
2017-08-23T21:42:39.210Z,101564.17
2017-08-23T21:45:07.070Z,101564.95
2017-08-23T21:47:34.887Z,101557.24
2017-08-23T21:50:02.768Z,101552.14
2017-08-23T21:52:30.593Z,101553.47
2017-08-23T21:54:58.445Z,101550.83
2017-08-23T21:57:26.266Z,101540.50
2017-08-23T21:59:54.043Z,101541.01
2017-08-23T22:02:21.848Z,101544.08
2017-08-23T22:04:49.729Z,101544.92
2017-08-23T22:07:17.539Z,101539.52
2017-08-23T22:09:45.478Z,101534.31
2017-08-23T22:12:13.330Z,101539.80
2017-08-23T22:14:41.150Z,101537.02
2017-08-23T22:17:09.039Z,101536.77
2017-08-23T22:19:36.801Z,101527.61
2017-08-23T22:22:04.616Z,101530.12
2017-08-23T22:24:32.492Z,101525.88
2017-08-23T22:27:00.332Z,101520.58
2017-08-23T22:29:28.124Z,101522.44
2017-08-23T22:31:56.060Z,101522.39
2017-08-23T22:34:23.835Z,101520.11
2017-08-23T22:36:51.657Z,101519.31
2017-08-23T22:39:19.446Z,101513.36
2017-08-23T22:41:47.258Z,101511.78
2017-08-23T22:44:15.083Z,101512.52
2017-08-23T22:46:42.808Z,101511.73
2017-08-23T22:49:10.628Z,101509.96
2017-08-23T22:51:38.462Z,101509.02
2017-08-23T22:54:06.209Z,101507.11
2017-08-23T22:56:33.919Z,101509.98
2017-08-23T22:59:01.689Z,101512.13
2017-08-23T23:01:29.471Z,101511.78
2017-08-23T23:03:57.331Z,101504.02
2017-08-23T23:06:25.039Z,101501.27
2017-08-23T23:08:52.856Z,101492.34
2017-08-23T23:11:20.651Z,101487.95
2017-08-23T23:13:48.475Z,101483.36
2017-08-23T23:16:16.268Z,101484.75
2017-08-23T23:18:44.102Z,101475.73
2017-08-23T23:21:11.931Z,101471.89
2017-08-23T23:23:39.716Z,101473.19
2017-08-23T23:26:07.565Z,101465.30
2017-08-23T23:28:35.363Z,101475.08
2017-08-23T23:31:03.118Z,101477.47
2017-08-23T23:33:30.950Z,101467.69
2017-08-23T23:35:58.781Z,101471.43
2017-08-23T23:38:26.576Z,101474.91
2017-08-23T23:40:54.411Z,101475.61
2017-08-23T23:43:22.200Z,101475.03
2017-08-23T23:45:49.944Z,101472.42
2017-08-23T23:48:17.720Z,101463.13
2017-08-23T23:50:45.584Z,101461.31
2017-08-23T23:53:13.368Z,101462.39
2017-08-23T23:55:41.200Z,101456.82
2017-08-23T23:58:08.988Z,101448.64
